Time;durP1;ratioP1;P1;durP2;ratioP2;P2;SDS_P1;SDS_P2;PMS_P1;PMS_P2;Temp;Humidity;BMP_temperature;BMP_pressure;BME280_temperature;BME280_humidity;BME280_pressure;Samples;Min_cycle;Max_cycle;Signal;HPM_P1;HPM_P2
2022/08/22 00:00:20;;;;;;;7.85;4.10;;;;;;;18.32;67.07;101051.09;5072534;28;20171;-76
2022/08/22 00:03:08;;;;;;;7.93;4.55;;;;;;;18.42;66.63;101049.41;5085603;28;20047;-76
2022/08/22 00:05:45;;;;;;;8.05;4.15;;;;;;;18.46;66.71;101056.16;5065118;28;20090;-74
2022/08/22 00:08:22;;;;;;;7.28;3.70;;;;;;;18.40;66.23;101054.81;5066405;28;20492;-74
2022/08/22 00:10:54;;;;;;;7.70;4.00;;;;;;;18.41;65.56;101056.53;5066180;28;20082;-75
2022/08/22 00:13:28;;;;;;;9.30;3.88;;;;;;;18.50;65.71;101049.66;5067040;28;20397;-74
2022/08/22 00:16:04;;;;;;;8.68;3.90;;;;;;;18.51;65.62;101064.66;5079287;28;20040;-75
2022/08/22 00:18:35;;;;;;;6.78;3.80;;;;;;;18.56;64.90;101056.28;5094071;28;20052;-75
2022/08/22 00:21:10;;;;;;;7.07;4.15;;;;;;;18.47;65.79;101060.53;5084492;28;20102;-75
2022/08/22 00:23:44;;;;;;;7.95;4.60;;;;;;;18.51;65.77;101058.47;5081684;27;20059;-75
2022/08/22 00:26:20;;;;;;;5.65;4.18;;;;;;;18.41;65.73;101056.53;5085073;27;20048;-76
2022/08/22 00:28:52;;;;;;;8.02;4.18;;;;;;;18.34;65.26;101057.13;5086590;27;20128;-76
2022/08/22 00:31:24;;;;;;;6.55;4.00;;;;;;;18.34;65.61;101065.09;5085372;28;20506;-76
2022/08/22 00:33:55;;;;;;;7.70;4.40;;;;;;;18.29;65.43;101062.78;5087145;28;20097;-76
2022/08/22 00:36:28;;;;;;;8.10;4.60;;;;;;;18.32;65.34;101062.56;5087891;27;20093;-76
2022/08/22 00:39:06;;;;;;;7.65;4.50;;;;;;;18.31;65.08;101058.22;5086808;27;20481;-75
2022/08/22 00:42:01;;;;;;;6.50;4.30;;;;;;;18.27;65.20;101070.03;5087570;28;20109;-75
2022/08/22 00:44:46;;;;;;;7.32;4.68;;;;;;;18.11;66.37;101066.88;5072166;28;20537;-75
2022/08/22 00:47:28;;;;;;;9.02;4.63;;;;;;;18.01;66.52;101065.91;5081476;28;20484;-75
2022/08/22 00:50:14;;;;;;;7.35;4.40;;;;;;;17.91;66.70;101068.44;5087937;27;20424;-72
2022/08/22 00:53:17;;;;;;;8.40;4.78;;;;;;;17.81;68.04;101077.25;5108117;27;20487;-72
2022/08/22 00:56:03;;;;;;;7.70;4.95;;;;;;;17.51;68.74;101070.59;5082025;28;20043;-72
2022/08/22 00:58:58;;;;;;;9.88;4.70;;;;;;;17.20;70.15;101070.34;5099717;27;20046;-72
2022/08/22 01:01:30;;;;;;;8.60;4.90;;;;;;;17.13;71.09;101072.59;5086380;27;20067;-72
2022/08/22 01:04:24;;;;;;;10.80;4.82;;;;;;;17.12;71.36;101068.25;5064992;28;20040;-72
2022/08/22 01:07:03;;;;;;;8.15;4.97;;;;;;;17.31;71.11;101068.59;5067567;28;20115;-72
2022/08/22 01:09:41;;;;;;;9.93;4.95;;;;;;;17.46;70.22;101061.31;5080421;27;20048;-72
2022/08/22 01:12:33;;;;;;;7.00;5.40;;;;;;;17.54;70.70;101058.91;5070563;28;20052;-72
2022/08/22 01:15:03;;;;;;;9.48;5.03;;;;;;;17.57;69.60;101065.81;5058527;28;20098;-72
2022/08/22 01:18:04;;;;;;;6.95;4.53;;;;;;;17.60;69.70;101065.59;5082343;28;20043;-72
2022/08/22 01:21:33;;;;;;;11.98;4.60;;;;;;;17.68;68.79;101057.91;5086146;28;20044;-72
2022/08/22 01:25:16;;;;;;;11.32;4.43;;;;;;;17.61;68.80;101057.53;4914442;28;20052;-73
2022/08/22 01:28:16;;;;;;;6.80;4.30;;;;;;;17.42;70.11;101054.53;4979373;28;20046;-72
2022/08/22 01:31:27;;;;;;;7.85;5.10;;;;;;;17.48;70.19;101064.66;5071572;28;20051;-72
2022/08/22 01:34:28;;;;;;;6.43;4.53;;;;;;;17.57;69.89;101063.16;5032487;28;20079;-73
2022/08/22 01:37:13;;;;;;;7.72;4.90;;;;;;;17.64;69.55;101059.94;5066313;28;20733;-72
2022/08/22 01:40:11;;;;;;;11.75;5.53;;;;;;;17.08;72.07;101066.78;5064241;28;20045;-73
2022/08/22 01:42:52;;;;;;;9.55;4.97;;;;;;;16.85;72.81;101055.22;5075133;28;20048;-73
2022/08/22 01:45:45;;;;;;;7.72;4.55;;;;;;;16.84;72.75;101060.66;5084843;28;20056;-73
2022/08/22 01:48:17;;;;;;;8.10;5.18;;;;;;;17.13;71.77;101064.66;5093687;27;20089;-74
2022/08/22 01:50:51;;;;;;;7.90;4.40;;;;;;;17.30;70.58;101058.94;5104858;27;20040;-74
2022/08/22 01:53:23;;;;;;;9.15;5.55;;;;;;;17.07;71.54;101067.78;5104251;27;20388;-74
2022/08/22 01:56:00;;;;;;;7.30;4.75;;;;;;;16.50;72.72;101056.91;5091489;27;20044;-74
2022/08/22 01:58:29;;;;;;;9.40;5.68;;;;;;;16.66;72.96;101061.97;5091144;28;20039;-74
2022/08/22 02:01:08;;;;;;;7.65;5.03;;;;;;;16.88;72.04;101070.06;5085211;27;20058;-73
2022/08/22 02:03:42;;;;;;;11.57;5.18;;;;;;;17.16;71.04;101059.13;5080122;28;20106;-73
2022/08/22 02:06:16;;;;;;;8.52;5.40;;;;;;;17.27;70.52;101060.97;5065617;28;20044;-73
2022/08/22 02:08:50;;;;;;;7.82;5.03;;;;;;;17.28;69.16;101060.88;5076558;28;20044;-73
2022/08/22 02:11:39;;;;;;;6.68;5.15;;;;;;;17.26;69.59;101067.22;5084825;28;20048;-73
2022/08/22 02:14:18;;;;;;;7.32;5.13;;;;;;;17.09;69.76;101062.34;5059715;28;20108;-73
2022/08/22 02:16:48;;;;;;;7.68;4.95;;;;;;;17.17;69.53;101060.81;5083985;28;20039;-73
2022/08/22 02:19:30;;;;;;;8.98;5.43;;;;;;;17.11;70.39;101061.25;5079355;28;20068;-73
2022/08/22 02:22:05;;;;;;;10.93;5.32;;;;;;;16.85;70.72;101068.47;5095344;28;20533;-73
2022/08/22 02:24:51;;;;;;;10.93;5.20;;;;;;;16.84;70.13;101071.25;5104590;27;20047;-73
2022/08/22 02:27:25;;;;;;;9.48;5.57;;;;;;;16.87;69.45;101065.72;5102983;27;20051;-73
2022/08/22 02:30:01;;;;;;;8.52;5.05;;;;;;;16.85;69.30;101071.13;5098886;27;20489;-73
2022/08/22 02:32:36;;;;;;;7.50;5.00;;;;;;;16.86;69.29;101059.56;5075176;27;20040;-73
2022/08/22 02:35:06;;;;;;;8.45;5.18;;;;;;;16.94;69.05;101072.25;5080171;27;20101;-73
2022/08/22 02:37:38;;;;;;;10.23;5.50;;;;;;;16.65;69.80;101066.44;5076143;27;20500;-73
2022/08/22 02:40:16;;;;;;;9.55;4.97;;;;;;;16.64;68.57;101058.56;5083361;27;20044;-73
2022/08/22 02:42:51;;;;;;;7.38;5.25;;;;;;;16.62;69.09;101066.66;5083715;27;20184;-73
2022/08/22 02:45:24;;;;;;;6.82;5.05;;;;;;;16.47;69.41;101054.47;5083374;28;20354;-73
2022/08/22 02:47:58;;;;;;;7.07;5.35;;;;;;;16.33;70.05;101068.66;5091123;27;20400;-73
2022/08/22 02:50:36;;;;;;;8.25;5.28;;;;;;;16.50;70.10;101063.03;5098584;27;20051;-73
2022/08/22 02:53:13;;;;;;;8.07;5.43;;;;;;;16.11;70.46;101071.13;5064093;28;20045;-73
2022/08/22 02:55:46;;;;;;;8.80;5.80;;;;;;;15.72;72.91;101071.22;5064689;28;20098;-73
2022/08/22 02:58:23;;;;;;;7.28;5.53;;;;;;;16.18;71.41;101067.13;5087616;28;20101;-73
2022/08/22 03:01:08;;;;;;;7.78;5.40;;;;;;;16.46;70.25;101066.84;5083712;28;20089;-73
2022/08/22 03:03:39;;;;;;;9.32;5.30;;;;;;;16.35;69.48;101068.56;5082351;28;20039;-73
2022/08/22 03:06:08;;;;;;;10.10;5.10;;;;;;;16.30;69.73;101063.59;5084311;27;20044;-73
2022/08/22 03:08:39;;;;;;;7.20;5.38;;;;;;;16.24;70.33;101071.97;5076311;28;20059;-73
2022/08/22 03:11:25;;;;;;;8.52;5.43;;;;;;;16.09;70.80;101075.69;5083593;28;20048;-73
2022/08/22 03:14:03;;;;;;;8.25;5.40;;;;;;;16.04;71.81;101070.69;5085756;28;20048;-73
2022/08/22 03:16:49;;;;;;;9.98;5.60;;;;;;;16.24;70.73;101074.63;5085175;28;20126;-73
2022/08/22 03:19:21;;;;;;;7.30;5.63;;;;;;;16.14;69.52;101076.22;5081645;28;20397;-73
2022/08/22 03:21:57;;;;;;;11.07;5.70;;;;;;;16.15;70.59;101077.06;5084565;28;20040;-73
2022/08/22 03:24:32;;;;;;;8.10;5.72;;;;;;;15.86;72.27;101071.97;5072414;28;20040;-73
2022/08/22 03:27:04;;;;;;;10.55;5.70;;;;;;;16.11;71.57;101073.78;5081317;27;20479;-73
2022/08/22 03:29:35;;;;;;;12.05;6.32;;;;;;;16.02;71.54;101063.81;5063600;28;20121;-74
2022/08/22 03:32:11;;;;;;;9.15;6.35;;;;;;;16.14;71.40;101062.13;5072296;27;20063;-73
2022/08/22 03:34:53;;;;;;;13.77;6.55;;;;;;;15.69;73.45;101068.78;5083667;28;20055;-73
2022/08/22 03:37:26;;;;;;;11.50;6.45;;;;;;;15.62;73.85;101073.63;5084128;28;20048;-73
2022/08/22 03:40:01;;;;;;;9.40;5.90;;;;;;;15.56;74.26;101074.88;5084003;27;20048;-73
2022/08/22 03:42:52;;;;;;;12.00;7.05;;;;;;;15.85;73.31;101082.66;5088240;27;20180;-73
2022/08/22 03:45:37;;;;;;;12.68;6.80;;;;;;;15.81;73.96;101073.25;5089048;28;20436;-73
2022/08/22 03:48:26;;;;;;;8.98;6.65;;;;;;;15.91;73.43;101083.09;5090571;27;20136;-73
2022/08/22 03:51:19;;;;;;;7.30;6.25;;;;;;;15.92;73.25;101086.56;5040821;28;20500;-73
2022/08/22 03:54:19;;;;;;;9.07;6.05;;;;;;;16.04;72.63;101080.44;5055128;28;20044;-73
2022/08/22 03:57:20;;;;;;;10.43;6.15;;;;;;;16.11;71.95;101091.47;5068417;28;20048;-73
2022/08/22 04:00:05;;;;;;;8.73;5.78;;;;;;;16.28;70.82;101086.69;5074267;28;20052;-73
2022/08/22 04:02:59;;;;;;;11.65;6.57;;;;;;;16.41;70.53;101078.72;5086202;28;20139;-73
2022/08/22 04:05:50;;;;;;;12.05;6.60;;;;;;;16.49;70.37;101092.25;5067180;28;20044;-73
2022/08/22 04:08:39;;;;;;;10.45;5.75;;;;;;;16.46;70.89;101095.13;5057768;28;20081;-73
2022/08/22 04:11:40;;;;;;;9.23;5.88;;;;;;;16.24;69.60;101100.22;5082066;28;20059;-72
2022/08/22 04:14:36;;;;;;;9.15;6.00;;;;;;;16.28;69.95;101097.25;5079854;28;20040;-73
2022/08/22 04:17:42;;;;;;;10.27;6.43;;;;;;;16.33;70.54;101105.72;5053337;28;20045;-72
2022/08/22 04:20:30;;;;;;;10.43;6.50;;;;;;;16.22;70.08;101100.31;5058225;28;20098;-72
2022/08/22 04:23:24;;;;;;;6.70;5.88;;;;;;;16.22;70.18;101102.97;5066547;28;20439;-72
2022/08/22 04:25:56;;;;;;;7.35;5.97;;;;;;;15.98;70.96;101104.66;5055565;28;20044;-73
2022/08/22 04:28:25;;;;;;;6.87;5.90;;;;;;;15.67;72.11;101105.06;5085216;28;20128;-73
2022/08/22 04:30:57;;;;;;;12.07;6.47;;;;;;;15.73;72.36;101107.28;5086215;28;20040;-73
2022/08/22 04:33:27;;;;;;;15.18;7.60;;;;;;;15.85;72.54;101117.03;5083464;28;20044;-73
2022/08/22 04:36:01;;;;;;;7.63;6.50;;;;;;;15.84;72.52;101107.41;5086430;27;20040;-73
2022/08/22 04:38:33;;;;;;;11.27;7.10;;;;;;;15.79;73.13;101115.63;5067523;28;20048;-73
2022/08/22 04:41:07;;;;;;;9.82;6.60;;;;;;;15.81;73.06;101119.03;5067041;28;20109;-73
2022/08/22 04:43:39;;;;;;;12.77;6.88;;;;;;;15.53;73.92;101120.03;5078392;28;20044;-73
2022/08/22 04:46:15;;;;;;;12.97;7.03;;;;;;;15.36;74.89;101120.25;5087346;27;20040;-73
2022/08/22 04:48:47;;;;;;;12.98;7.60;;;;;;;15.50;75.17;101120.22;5092014;27;20718;-73
2022/08/22 04:51:18;;;;;;;;;;;;;;;15.53;75.76;101129.75;5085596;27;20044;-73
2022/08/22 04:54:06;;;;;;;11.32;6.75;;;;;;;15.54;75.72;101128.81;5084685;27;20389;-73
2022/08/22 04:56:43;;;;;;;10.32;7.22;;;;;;;15.42;75.75;101127.78;5070342;28;20040;-73
2022/08/22 04:59:12;;;;;;;17.35;7.38;;;;;;;15.49;76.09;101123.81;5083709;27;20105;-73
2022/08/22 05:01:45;;;;;;;15.18;7.72;;;;;;;15.66;75.91;101130.66;5086147;27;20109;-73
2022/08/22 05:04:16;;;;;;;12.43;7.60;;;;;;;15.77;76.01;101129.91;5087983;28;20052;-73
2022/08/22 05:06:47;;;;;;;16.88;8.07;;;;;;;15.95;75.78;101129.53;5074501;28;20048;-73
2022/08/22 05:09:19;;;;;;;21.80;7.95;;;;;;;15.93;75.66;101125.28;5078839;27;20116;-73
2022/08/22 05:11:50;;;;;;;14.50;7.30;;;;;;;16.23;74.69;101130.28;5085993;27;20388;-73
2022/08/22 05:14:23;;;;;;;11.25;7.30;;;;;;;16.28;74.35;101139.59;5085457;27;20514;-72
2022/08/22 05:16:54;;;;;;;21.58;7.78;;;;;;;16.12;75.48;101138.94;5089928;28;20053;-72
2022/08/22 05:19:24;;;;;;;11.23;7.00;;;;;;;16.12;75.88;101143.38;5097377;27;20044;-72
2022/08/22 05:21:51;;;;;;;12.77;7.43;;;;;;;16.11;76.60;101141.72;5086852;27;20044;-72
2022/08/22 05:24:24;;;;;;;17.17;8.63;;;;;;;16.33;75.91;101145.41;5084614;27;20066;-72
2022/08/22 05:26:56;;;;;;;12.40;7.65;;;;;;;16.76;75.07;101134.50;5086505;27;20731;-72
2022/08/22 05:29:27;;;;;;;13.23;8.00;;;;;;;17.20;73.52;101140.09;5086288;27;20403;-72
2022/08/22 05:31:59;;;;;;;16.00;8.40;;;;;;;17.62;72.16;101141.44;5076800;28;20052;-72
2022/08/22 05:34:28;;;;;;;;;;;;;;;17.50;72.42;101142.31;5076558;28;20074;-72
2022/08/22 05:36:59;;;;;;;11.10;6.70;;;;;;;17.72;71.71;101139.78;5084663;27;19919;-72
2022/08/22 05:39:28;;;;;;;11.07;6.70;;;;;;;18.34;70.85;101144.75;5085884;27;20040;-72
2022/08/22 05:42:02;;;;;;;13.20;7.57;;;;;;;18.56;70.06;101150.09;5085120;27;20465;-72
2022/08/22 05:44:33;;;;;;;15.63;7.13;;;;;;;18.38;70.08;101155.00;5083950;27;21452;-72
2022/08/22 05:47:06;;;;;;;10.65;7.15;;;;;;;18.47;69.25;101159.63;5089597;27;20491;-72
2022/08/22 05:49:36;;;;;;;8.80;7.55;;;;;;;18.92;67.17;101162.28;5096446;27;20047;-72
2022/08/22 05:52:13;;;;;;;8.57;6.75;;;;;;;18.68;68.82;101165.09;5088858;27;20070;-72
2022/08/22 05:54:51;;;;;;;13.55;6.45;;;;;;;19.30;68.00;101160.03;5084698;27;20107;-72
2022/08/22 05:57:24;;;;;;;9.73;7.60;;;;;;;19.54;67.46;101165.22;5082926;27;20415;-72
2022/08/22 05:59:56;;;;;;;8.75;6.68;;;;;;;19.69;66.67;101161.28;5084100;27;20044;-73
2022/08/22 06:02:38;;;;;;;11.93;7.18;;;;;;;19.79;67.59;101166.69;5073563;28;20415;-71
2022/08/22 06:05:06;;;;;;;12.98;7.60;;;;;;;20.15;64.76;101166.25;5084775;28;20052;-72
2022/08/22 06:07:35;;;;;;;11.43;7.68;;;;;;;20.60;62.49;101171.28;5083049;28;20568;-72
2022/08/22 06:10:19;;;;;;;13.85;7.47;;;;;;;20.55;63.22;101165.50;5084884;28;20040;-72
2022/08/22 06:12:53;;;;;;;7.50;6.65;;;;;;;20.38;64.01;101172.31;5083628;27;20089;-72
2022/08/22 06:15:26;;;;;;;14.23;7.88;;;;;;;20.47;64.37;101171.53;5085521;27;20052;-72
2022/08/22 06:17:59;;;;;;;13.05;6.75;;;;;;;19.68;67.07;101178.22;5091320;27;20056;-72
2022/08/22 06:20:29;;;;;;;9.38;7.45;;;;;;;20.11;66.66;101178.13;5090034;27;20048;-72
2022/08/22 06:23:00;;;;;;;12.73;7.25;;;;;;;20.44;66.41;101179.75;5085142;27;20405;-72
2022/08/22 06:25:30;;;;;;;16.73;7.50;;;;;;;20.36;65.47;101180.41;5076963;28;20052;-72
2022/08/22 06:28:01;;;;;;;8.88;7.20;;;;;;;20.24;65.19;101177.94;5071169;28;20098;-72
2022/08/22 06:30:28;;;;;;;11.27;7.32;;;;;;;21.05;61.30;101172.59;5083415;27;20051;-72
2022/08/22 06:33:01;;;;;;;14.68;7.35;;;;;;;21.57;63.10;101170.63;5084318;27;20044;-75
2022/08/22 06:36:29;;;;;;;14.45;7.35;;;;;;;22.11;61.11;101175.41;5079583;28;20465;-74
2022/08/22 06:38:21;;;;;;;13.38;7.28;;;;;;;21.89;61.08;101173.00;5074390;27;20049;-77
2022/08/22 06:40:49;;;;;;;13.60;6.63;;;;;;;22.26;58.67;101172.16;5083454;27;20484;-77
2022/08/22 06:43:17;;;;;;;9.38;7.25;;;;;;;22.11;61.15;101170.91;5071465;28;20419;-77
2022/08/22 06:45:43;;;;;;;10.00;6.80;;;;;;;22.79;59.51;101168.91;5083311;27;20081;-77
2022/08/22 06:48:18;;;;;;;10.15;7.18;;;;;;;22.57;56.99;101175.44;5093430;27;20097;-77
2022/08/22 06:50:51;;;;;;;10.70;6.55;;;;;;;22.94;58.45;101166.59;5072886;28;20101;-77
2022/08/22 06:53:20;;;;;;;13.35;7.10;;;;;;;23.62;57.28;101168.72;5071541;28;20071;-77
2022/08/22 06:55:49;;;;;;;11.10;6.35;;;;;;;23.64;55.82;101165.88;5078334;27;20094;-77
2022/08/22 06:58:18;;;;;;;12.35;7.57;;;;;;;24.22;55.87;101174.25;5084233;27;20093;-77
2022/08/22 07:00:51;;;;;;;12.98;6.40;;;;;;;23.55;55.42;101169.47;5084428;27;20041;-77
2022/08/22 07:03:26;;;;;;;9.85;6.55;;;;;;;24.88;50.51;101173.66;5075886;28;20048;-77
2022/08/22 07:05:55;;;;;;;13.25;7.15;;;;;;;25.50;50.01;101169.66;5048750;28;20051;-77
2022/08/22 07:08:23;;;;;;;14.10;7.78;;;;;;;25.12;51.41;101168.41;5053216;28;20098;-77
2022/08/22 07:10:57;;;;;;;14.30;7.45;;;;;;;25.28;51.99;101176.50;5083123;28;20048;-77
2022/08/22 07:13:26;;;;;;;12.15;7.78;;;;;;;25.12;50.53;101169.25;5085101;27;20097;-77
2022/08/22 07:15:55;;;;;;;14.98;8.05;;;;;;;25.12;49.66;101169.25;5075369;28;20067;-77
2022/08/22 07:18:26;;;;;;;8.32;6.68;;;;;;;24.91;52.43;101176.88;5088493;27;20036;-77
2022/08/22 07:20:55;;;;;;;12.07;7.57;;;;;;;24.85;51.73;101185.56;5075550;28;20052;-77
2022/08/22 07:23:30;;;;;;;12.65;7.57;;;;;;;23.93;54.28;101179.88;5088183;27;20554;-76
2022/08/22 07:26:12;;;;;;;9.40;7.32;;;;;;;25.20;51.72;101173.81;5076618;28;20066;-76
2022/08/22 07:28:45;;;;;;;14.23;6.43;;;;;;;25.38;51.35;101176.38;5079081;28;20048;-76
2022/08/22 07:31:23;;;;;;;9.98;6.75;;;;;;;25.82;50.67;101182.34;5089271;27;20048;-74
2022/08/22 07:33:54;;;;;;;9.63;6.40;;;;;;;26.14;50.19;101177.78;5073018;28;20052;-74
2022/08/22 07:36:27;;;;;;;12.73;7.30;;;;;;;26.60;46.69;101178.09;5076413;28;20052;-74
2022/08/22 07:39:08;;;;;;;17.88;7.95;;;;;;;27.10;46.16;101181.28;5066590;28;20609;-74
2022/08/22 07:41:53;;;;;;;13.30;7.37;;;;;;;26.37;46.90;101183.34;5088048;27;20496;-74
2022/08/22 07:44:25;;;;;;;11.07;6.88;;;;;;;26.44;47.02;101186.19;5085126;27;20044;-75
2022/08/22 07:46:56;;;;;;;;;;;;;;;26.10;47.38;101180.97;5072220;28;20470;-76
2022/08/22 07:49:28;;;;;;;11.70;7.25;;;;;;;26.90;47.60;101185.38;5094335;27;20321;-76
2022/08/22 07:52:00;;;;;;;9.20;6.40;;;;;;;27.52;48.14;101183.59;5086924;27;20055;-76
2022/08/22 07:54:35;;;;;;;12.88;7.03;;;;;;;27.09;46.40;101190.34;5076632;27;20089;-75
2022/08/22 07:57:06;;;;;;;11.48;7.00;;;;;;;27.70;46.58;101188.69;5082506;28;20051;-75
2022/08/22 07:59:34;;;;;;;15.77;7.00;;;;;;;27.53;43.56;101187.97;5098671;28;20052;-75
2022/08/22 08:02:05;;;;;;;15.70;7.68;;;;;;;27.53;44.73;101196.03;5087146;27;20477;-75
2022/08/22 08:04:35;;;;;;;10.13;7.10;;;;;;;27.21;46.88;101195.34;5086277;27;20036;-75
2022/08/22 08:07:05;;;;;;;11.85;6.80;;;;;;;27.37;44.98;101193.44;5074931;28;20561;-75
2022/08/22 08:09:39;;;;;;;12.35;6.47;;;;;;;27.68;43.73;101187.22;5066859;28;20516;-75
2022/08/22 08:12:08;;;;;;;8.48;6.45;;;;;;;28.49;42.09;101185.47;5089013;28;20079;-75
2022/08/22 08:14:37;;;;;;;9.07;6.03;;;;;;;29.14;42.10;101186.59;5067447;28;20041;-75
2022/08/22 08:17:08;;;;;;;12.45;6.00;;;;;;;29.96;43.15;101179.84;5068671;28;20052;-76
2022/08/22 08:19:40;;;;;;;11.40;6.10;;;;;;;30.02;40.90;101180.94;5084101;28;20054;-76
2022/08/22 08:22:07;;;;;;;8.35;5.50;;;;;;;29.70;41.16;101179.56;5079463;28;20048;-76
2022/08/22 08:24:37;;;;;;;10.68;6.10;;;;;;;29.88;39.81;101188.94;5086245;28;20070;-75
2022/08/22 08:29:57;;;;;;;10.50;4.88;;;;;;;30.53;41.43;101181.53;5087299;28;20062;-76
2022/08/22 08:32:27;;;;;;;6.30;5.05;;;;;;;30.17;38.04;101179.81;5085421;27;20543;-76
2022/08/22 08:34:55;;;;;;;8.95;5.72;;;;;;;29.60;39.57;101179.88;5084889;27;20066;-76
2022/08/22 08:37:26;;;;;;;11.38;5.15;;;;;;;29.98;40.68;101179.63;5088164;28;20093;-76
2022/08/22 08:39:56;;;;;;;10.30;5.35;;;;;;;29.91;38.22;101190.41;5085588;27;20064;-76
2022/08/22 08:45:53;;;;;;;11.40;4.70;;;;;;;29.85;37.51;101188.50;5087377;27;20094;-76
2022/08/22 08:48:35;;;;;;;8.27;5.15;;;;;;;30.04;39.99;101185.13;5088162;28;20036;-76
2022/08/22 08:51:17;;;;;;;17.73;4.82;;;;;;;30.04;39.48;101195.94;5051262;28;20045;-76
2022/08/22 08:54:09;;;;;;;8.73;4.15;;;;;;;30.39;39.08;101192.25;5101709;27;20044;-76
2022/08/22 08:56:43;;;;;;;4.57;3.47;;;;;;;30.78;38.50;101185.47;5073886;28;20498;-77
2022/08/22 08:59:24;;;;;;;8.48;4.10;;;;;;;30.22;39.53;101190.06;5072736;28;20052;-76
2022/08/22 09:02:11;;;;;;;11.38;4.57;;;;;;;30.78;35.98;101194.41;5071781;28;20098;-76
2022/08/22 09:05:11;;;;;;;6.57;4.40;;;;;;;30.57;38.05;101197.19;5087431;27;20123;-76
2022/08/22 09:08:10;;;;;;;10.45;4.40;;;;;;;30.69;38.09;101192.91;5056277;28;20441;-76
2022/08/22 09:11:03;;;;;;;8.38;4.85;;;;;;;31.10;40.21;101190.22;5058143;28;20466;-76
2022/08/22 09:13:46;;;;;;;11.88;4.05;;;;;;;31.70;34.10;101177.72;5074229;28;20043;-76
2022/08/22 09:16:28;;;;;;;7.13;4.65;;;;;;;31.48;35.65;101182.44;5087289;28;20093;-71
2022/08/22 09:19:28;;;;;;;8.32;3.83;;;;;;;31.19;34.66;101185.47;5091632;27;20035;-71
2022/08/22 09:22:19;;;;;;;7.15;3.55;;;;;;;31.85;34.99;101184.59;5107123;27;20503;-71
2022/08/22 09:25:10;;;;;;;11.23;3.80;;;;;;;31.85;34.20;101181.88;5104944;27;20096;-71
2022/08/22 09:27:45;;;;;;;7.47;3.40;;;;;;;31.15;35.17;101181.50;5093309;28;21668;-71
2022/08/22 09:30:16;;;;;;;9.20;3.35;;;;;;;30.43;35.61;101188.16;5104012;28;20051;-71
2022/08/22 09:32:50;;;;;;;7.70;3.60;;;;;;;30.50;38.27;101192.78;5084251;28;20237;-71
2022/08/22 09:35:28;;;;;;;5.80;3.13;;;;;;;31.47;35.18;101185.34;5074345;28;20047;-71
2022/08/22 09:38:12;;;;;;;6.03;2.80;;;;;;;32.19;31.73;101180.03;5084366;28;20048;-71
2022/08/22 09:40:44;;;;;;;6.80;2.65;;;;;;;32.56;31.57;101175.81;5058244;28;20048;-71
2022/08/22 09:43:17;;;;;;;7.07;2.45;;;;;;;31.09;32.79;101168.75;5085474;28;20044;-71
2022/08/22 09:45:50;;;;;;;5.95;2.40;;;;;;;31.55;34.26;101168.94;5083556;28;20062;-71
2022/08/22 09:48:33;;;;;;;5.57;2.50;;;;;;;31.63;31.07;101172.28;5101207;27;20044;-71
2022/08/22 09:51:13;;;;;;;6.43;2.47;;;;;;;31.80;31.31;101167.28;5065216;28;20044;-71
2022/08/22 09:53:50;;;;;;;5.18;2.13;;;;;;;32.23;29.58;101179.41;5065030;28;20093;-71
2022/08/22 09:56:22;;;;;;;5.93;2.33;;;;;;;32.00;29.98;101173.56;5073474;27;20125;-71
2022/08/22 09:59:00;;;;;;;6.45;2.50;;;;;;;30.96;31.91;101174.09;5114016;27;20046;-71
2022/08/22 10:01:32;;;;;;;6.90;2.67;;;;;;;31.22;31.83;101175.06;5084884;27;20055;-71
2022/08/22 10:04:28;;;;;;;5.32;2.30;;;;;;;30.74;31.99;101170.66;5085589;28;20549;-71
2022/08/22 10:07:01;;;;;;;5.28;2.60;;;;;;;31.32;31.47;101175.50;5084655;27;20137;-71
2022/08/22 10:09:40;;;;;;;4.05;2.10;;;;;;;30.90;30.84;101176.56;5084853;27;20563;-71
2022/08/22 10:12:11;;;;;;;4.07;2.33;;;;;;;31.29;31.93;101175.94;5083829;27;20419;-71
2022/08/22 10:14:53;;;;;;;4.38;2.30;;;;;;;31.08;31.35;101181.44;5085195;27;20043;-71
2022/08/22 10:17:28;;;;;;;5.22;2.40;;;;;;;31.56;31.99;101171.41;5091531;27;20392;-70
2022/08/22 10:20:02;;;;;;;5.57;2.25;;;;;;;31.55;29.92;101164.34;5094557;27;20697;-70
2022/08/22 10:22:41;;;;;;;4.78;2.20;;;;;;;31.90;29.43;101166.88;5103765;27;20423;-70
2022/08/22 10:25:23;;;;;;;7.35;2.72;;;;;;;32.26;30.14;101167.31;5105114;27;20055;-70
2022/08/22 10:28:03;;;;;;;5.28;2.25;;;;;;;31.46;29.95;101161.97;5101433;27;20410;-71
2022/08/22 10:30:42;;;;;;;4.50;1.95;;;;;;;31.18;30.89;101167.53;5084396;28;20506;-70
2022/08/22 10:33:13;;;;;;;6.63;2.22;;;;;;;31.01;31.22;101164.34;5083636;28;20040;-70
2022/08/22 10:36:00;;;;;;;7.40;2.20;;;;;;;30.66;30.80;101170.81;5084904;28;20048;-70
2022/08/22 10:38:31;;;;;;;10.05;2.42;;;;;;;30.59;32.25;101162.66;5081884;27;20048;-70
2022/08/22 10:41:05;;;;;;;5.20;2.30;;;;;;;29.41;33.03;101167.03;5083799;27;20044;-70
2022/08/22 10:43:40;;;;;;;4.55;2.05;;;;;;;29.85;32.21;101158.75;5083198;27;20112;-70
2022/08/22 10:46:14;;;;;;;7.28;2.20;;;;;;;29.94;32.94;101155.69;5071133;28;20136;-70
2022/08/22 10:48:47;;;;;;;4.57;2.38;;;;;;;29.33;31.20;101154.47;5074637;28;20769;-70
2022/08/22 10:51:24;;;;;;;5.38;2.45;;;;;;;30.08;32.29;101156.63;5105518;27;20525;-70
2022/08/22 10:54:08;;;;;;;3.88;2.10;;;;;;;30.88;32.13;101156.16;5105587;27;20112;-70
2022/08/22 10:56:40;;;;;;;3.75;1.88;;;;;;;31.43;32.79;101149.69;5103947;27;20483;-70
2022/08/22 10:59:19;;;;;;;5.00;2.40;;;;;;;30.97;31.37;101154.09;5105447;27;20047;-70
2022/08/22 11:01:56;;;;;;;5.63;2.30;;;;;;;30.77;31.75;101156.72;5071529;28;20173;-70
2022/08/22 11:04:38;;;;;;;7.00;2.58;;;;;;;29.77;30.19;101151.56;5085219;28;20044;-69
2022/08/22 11:07:18;;;;;;;5.22;2.00;;;;;;;29.55;32.20;101154.47;5053556;28;20075;-69
2022/08/22 11:09:55;;;;;;;7.38;2.50;;;;;;;30.50;30.12;101147.59;5079039;28;20044;-69
2022/08/22 11:12:33;;;;;;;6.75;2.15;;;;;;;30.44;30.01;101145.72;5083654;28;20044;-69
2022/08/22 11:15:06;;;;;;;6.25;2.00;;;;;;;30.39;31.73;101143.56;5083711;28;20085;-69
2022/08/22 11:18:15;;;;;;;5.85;2.38;;;;;;;30.64;31.03;101138.53;5092851;27;20036;-69
2022/08/22 11:20:52;;;;;;;5.35;2.20;;;;;;;30.27;30.75;101137.00;5075320;27;20108;-69
2022/08/22 11:23:33;;;;;;;4.63;1.90;;;;;;;31.00;32.50;101141.03;5081715;27;20125;-69
2022/08/22 11:26:11;;;;;;;6.05;2.13;;;;;;;31.99;32.45;101138.50;5053923;28;20456;-69
2022/08/22 11:29:10;;;;;;;3.63;2.05;;;;;;;32.02;28.00;101128.06;5068423;28;20049;-69
2022/08/22 11:31:47;;;;;;;4.72;1.90;;;;;;;31.49;27.57;101124.47;5068586;28;20041;-69
2022/08/22 11:34:29;;;;;;;3.55;1.92;;;;;;;30.93;30.14;101137.44;5084551;27;20044;-69
2022/08/22 11:37:04;;;;;;;3.55;1.90;;;;;;;31.15;29.93;101135.44;5082302;28;20085;-67
2022/08/22 11:39:34;;;;;;;3.88;1.80;;;;;;;31.66;31.21;101122.22;5079942;28;20048;-66
2022/08/22 11:42:06;;;;;;;5.88;1.90;;;;;;;31.44;28.01;101124.25;5078835;27;20044;-66
2022/08/22 11:44:34;;;;;;;;;;;;;;;31.89;31.33;101127.25;5083373;27;20044;-66
2022/08/22 11:47:01;;;;;;;4.75;2.05;;;;;;;32.06;27.15;101118.50;5088481;27;19919;-66
2022/08/22 11:49:38;;;;;;;8.70;2.55;;;;;;;31.63;26.46;101128.06;5094192;27;20388;-66
2022/08/22 11:52:11;;;;;;;11.82;2.95;;;;;;;30.77;28.88;101116.09;5105384;27;20727;-66
2022/08/22 11:55:01;;;;;;;7.07;1.83;;;;;;;31.69;30.87;101130.78;5094297;27;20193;-66
2022/08/22 11:57:33;;;;;;;4.95;2.17;;;;;;;31.79;28.98;101125.78;5082967;27;20101;-66
2022/08/22 12:00:19;;;;;;;3.63;1.90;;;;;;;32.57;26.65;101121.31;5084181;27;20043;-66
2022/08/22 12:03:01;;;;;;;4.43;2.30;;;;;;;33.19;29.71;101115.22;5088098;27;20075;-65
2022/08/22 12:05:33;;;;;;;4.75;2.35;;;;;;;33.20;27.64;101110.63;5085426;28;20556;-66
2022/08/22 12:08:09;;;;;;;6.72;2.03;;;;;;;33.04;26.45;101111.09;5087136;28;20446;-66
2022/08/22 12:10:43;;;;;;;3.42;1.98;;;;;;;31.86;28.94;101120.34;5086238;27;20101;-66
2022/08/22 12:13:16;;;;;;;6.45;2.05;;;;;;;31.45;26.35;101111.56;5087947;27;20050;-66
2022/08/22 12:15:50;;;;;;;5.03;2.00;;;;;;;30.53;29.03;101109.31;5088821;27;20040;-65
2022/08/22 12:18:26;;;;;;;5.43;2.10;;;;;;;30.53;29.57;101098.50;5094339;28;20097;-66